Terminal Aerodrome Forecast
Issued by NWS Cleveland, OH

Home | Current Version | Previous Version | Graphics & Text | Print | Product List | Glossary Off
Versions: 1 2 3 4 5 6 7 8 9 10 11 12 13 14 15 16 17

000
FTUS41 KCLE 242336
TAFTOL
TAF
KTOL 242336Z 2500/2524 20006KT P6SM SCT040 BKN200
     FM250800 25010KT P6SM VCTS BKN035CB OVC080
      TEMPO 2509/2511 3SM -TSRA BKN018CB OVC030
     FM251300 26008KT P6SM SCT035 BKN100
     FM251800 28010KT P6SM SCT250=

USA.gov is the U.S. government's official web portal to all federal, state and local government web resources and services.